Gradyville, KY (42742)

11:14 AM CDT on August 24, 2016 (GMT -0500)
Grab KY | | Change Station

Elev 801 ft 37.22 °N, 85.59 °W | Updated 6 minutes ago

Scattered Clouds
Scattered Clouds
83.3 °F
Feels Like 90 °F
N
4.7
Wind Variable Wind from SW

Today
High -- | Low -- °F
--% Chance of Precip.
Yesterday
High -- | Low -- °F
Precip. -- in
Pressure 30.22 in
Visibility 10.0 miles
Clouds Scattered Clouds 4000 ft
Heat Index 90 °F
Dew Point 74 °F
Humidity 75%
Rainfall 0.00 in
Snow Depth Not available.
6:06 AM 7:20 PM
Waning Gibbous, 55% visible
METAR KGLW 241555Z AUTO 22007KT 10SM SCT040 28/22 A3022 RMK AO2 T02780217
Pressure 30.22 in
Visibility 10.0 miles
Clouds Scattered Clouds 4000 ft
Heat Index 90 °F
Dew Point 74 °F
Humidity 75%
Rainfall 0.00 in
Snow Depth Not available.
6:06 AM 7:20 PM
Waning Gibbous, 55% visible
METAR KGLW 241555Z AUTO 22007KT 10SM SCT040 28/22 A3022 RMK AO2 T02780217

10-Day Weather Forecast

Almanac

Astronomy

Aug. 24, 2016 Rise Set
Actual Time
Civil Twilight
Nautical Twilight
Astronomical Twilight
Moon
Length of Visible Light
Length of Day
Tomorrow will be .
, % of the Moon is Illuminated

Today's Extremes

State Highs State Lows

Community

WunderPhotos

Upload Photos

1,934,648 photos uploaded!

WunderBlog® & News

Nearby

Air Quality

  Air Quality AQ Index Pollutant
Not available.

Snow Depth

Station Depth Elevation

Earthquake Activity

City Distance Mag. Time & Date
Minimum magnitude displayed is 2.5.

Coastal Water Temperatures

Place Temperature

Stations

Nearby Weather Stations

Station Location Temp. Windchill Dew Point Humidity Wind Precip. Elev Updated Type
                   

Watches & Warnings

There are currently no watches in effect.